Latest Weather Observations for Oenpelli Airport

IDD60801

Issued at 3:05 pm CST Sunday 20 April 2014 (issued every 30 minutes, with the page automatically refreshed every 10 minutes)

About weather observations | Map of weather stations | Latest weather observations for NT | Other Formats
Station Details ID: 014310 Name: OENPELLI AIRPORT Lat: -12.33 Lon: 133.01 Height: 7.5 m
Data from the previous 72 hours. | See also: Recent months for locations in Northern Territory
Date/Time
CST
Temp
°C
App
Temp
°C
Dew
Point
Rel
Hum
%
Delta-T
°C
Wind Press
QNH
hPa
Press
MSL
hPa
Rain
since 9 am
mm
Dir
 
Spd
km/h
Gust
km/h
Spd
kts
Gust
kts
20/03:00pm 32.3 33.4 20.5 49 7.9 ENE 15 24 8 13 1007.3 1007.2 0.0
20/02:30pm 33.5 35.0 20.6 46 8.7 E 13 20 7 11 1007.5 1007.4 0.0
20/02:00pm 32.8 34.4 20.0 47 8.5 ESE 11 20 6 11 1007.9 - 0.0
20/01:30pm 33.0 34.0 20.2 47 8.5 ESE 15 26 8 14 1008.3 1008.2 0.0
20/01:00pm 33.1 33.7 20.3 47 8.5 E 17 28 9 15 1008.6 - 0.0
20/12:30pm 32.9 34.0 20.4 47 8.3 E 15 24 8 13 1009.2 1009.1 0.0
20/12:00pm 32.6 34.0 21.1 50 7.7 E 15 24 8 13 1009.5 1009.4 0.0
20/11:30am 32.0 32.8 20.6 51 7.6 E 17 22 9 12 1009.9 1009.8 0.0
20/11:00am 31.6 32.9 20.8 52 7.2 ESE 15 26 8 14 1010.4 - 0.0
20/10:30am 31.0 32.1 21.2 56 6.6 ESE 17 26 9 14 1010.8 1010.7 0.0
20/10:00am 30.6 31.9 21.7 59 6.0 ESE 17 28 9 15 1010.9 - 0.0
20/09:30am 29.4 30.7 21.6 63 5.2 ESE 17 26 9 14 1010.9 1010.8 0.0
20/09:00am 29.0 31.5 21.7 64 4.9 E 11 20 6 11 1010.6 1010.5 0.0
20/08:30am 27.6 29.8 21.9 71 3.8 ESE 13 19 7 10 1010.6 1010.5 0.0
20/08:00am 26.8 30.1 21.8 74 3.3 ESE 7 15 4 8 1010.6 - 0.0
20/07:30am 25.2 29.4 22.5 85 1.8 NNE 4 7 2 4 1010.5 1010.4 0.0
20/07:00am 22.8 27.3 21.6 93 0.8 CALM 0 0 0 0 1010.0 - 0.0
20/06:30am 22.8 27.4 21.8 94 0.7 NNE 0 0 0 0 1009.4 1009.3 0.0
20/06:00am 22.8 27.3 21.6 93 0.8 NNE 0 0 0 0 1008.9 1008.8 0.0
20/05:30am 23.1 27.7 21.7 92 0.9 CALM 0 0 0 0 1008.8 1008.7 0.0
20/05:00am 23.1 27.6 21.5 91 1.1 CALM 0 0 0 0 1008.7 - 0.0
20/04:30am 23.1 27.4 21.2 89 1.2 CALM 0 0 0 0 1008.6 1008.5 0.0
20/04:00am 23.6 28.1 21.5 88 1.4 CALM 0 0 0 0 1008.6 - 0.0
20/03:30am 23.9 28.2 21.2 85 1.8 CALM 0 0 0 0 1008.8 1008.7 0.0
20/03:00am 24.4 28.1 20.7 80 2.4 ESE 2 7 1 4 1008.7 1008.6 0.0
20/02:30am 25.1 28.7 20.6 76 2.9 SE 2 7 1 4 1008.7 1008.6 0.0
20/02:00am 24.9 28.5 20.6 77 2.8 E 2 4 1 2 1008.8 - 0.0
20/01:30am 25.0 28.0 20.9 78 2.7 ENE 6 7 3 4 1009.0 1008.9 0.0
20/01:00am 25.7 29.5 20.9 75 3.2 ENE 2 6 1 3 1009.4 - 0.0
20/12:30am 26.0 29.4 21.0 74 3.3 E 4 7 2 4 1009.8 1009.7 0.0
20/12:00am 26.2 28.8 21.2 74 3.3 ESE 9 13 5 7 1010.2 1010.1 0.0
 
Date/Time
CST
Temp
°C
App
Temp
°C
Dew
Point
Rel
Hum
%
Delta-T
°C
Wind Press
QNH
hPa
Press
MSL
hPa
Rain
since 9 am
mm
Dir
 
Spd
km/h
Gust
km/h
Spd
kts
Gust
kts
19/11:30pm 24.6 29.0 22.1 86 1.7 NE 2 6 1 3 1010.6 1010.5 0.0
19/11:00pm 24.4 29.3 22.3 88 1.4 CALM 0 0 0 0 1011.2 - 0.0
19/10:30pm 24.3 29.0 22.0 87 1.5 CALM 0 0 0 0 1011.6 1011.5 0.0
19/10:00pm 24.0 28.5 21.5 86 1.7 CALM 0 0 0 0 1012.0 - 0.0
19/09:30pm 23.8 27.0 21.3 86 1.6 NE 6 7 3 4 1012.3 1012.2 0.0
19/09:00pm 23.8 26.6 20.9 84 1.9 NNE 7 9 4 5 1012.1 1012.0 0.0
19/08:30pm 24.1 28.3 21.0 83 2.0 CALM 0 4 0 2 1011.6 1011.5 0.0
19/08:00pm 23.9 26.8 20.6 82 2.2 NE 6 7 3 4 1011.1 - 0.0
19/07:30pm 24.1 26.4 20.6 81 2.3 NE 9 13 5 7 1010.6 1010.5 0.0
19/07:00pm 24.0 25.6 20.7 82 2.2 NE 13 20 7 11 1010.3 - 0.0
19/06:30pm 24.1 25.6 20.6 81 2.3 NE 13 20 7 11 1010.4 1010.3 0.0
19/06:00pm 25.2 25.9 20.5 75 3.1 ENE 17 28 9 15 1010.3 1010.2 0.0
19/05:30pm 25.5 27.1 22.2 82 2.2 NE 17 28 9 15 1009.9 1009.8 0.0
19/05:00pm 26.2 27.5 22.3 79 2.6 ENE 19 28 10 15 1009.4 - 0.0
19/04:30pm 27.0 28.6 22.8 78 2.9 ENE 19 28 10 15 1009.0 1008.9 0.0
19/04:00pm 26.1 28.7 22.6 81 2.4 NE 13 22 7 12 1008.2 - 0.0
19/03:30pm 25.5 25.2 22.6 84 2.0 NE 28 41 15 22 1008.4 1008.3 0.0
19/03:14pm 26.4 26.2 22.7 80 2.5 NE 28 46 15 25 1008.6 - 0.0
19/03:00pm 28.4 27.6 22.4 70 4.1 NE 30 43 16 23 1008.3 1008.2 0.0
19/02:58pm 28.7 28.3 22.4 68 4.3 NE 28 43 15 23 1008.3 - 0.0
19/02:30pm 32.8 34.4 20.7 49 8.1 E 13 22 7 12 1007.9 1007.8 0.0
19/02:00pm 32.1 33.0 20.0 48 8.0 ESE 15 22 8 12 1008.1 - 0.0
19/01:30pm 33.4 34.7 20.9 48 8.4 ENE 15 22 8 12 1008.5 1008.4 0.0
19/01:00pm 33.3 33.6 20.8 48 8.4 E 20 32 11 17 1009.0 - 0.0
19/12:30pm 33.3 34.3 21.8 51 7.8 E 19 28 10 15 1009.5 1009.4 0.0
19/12:00pm 32.8 33.8 21.0 50 7.9 E 17 28 9 15 1010.0 1009.9 0.0
19/11:30am 31.7 33.3 22.1 56 6.5 E 17 24 9 13 1010.6 1010.5 0.0
19/11:00am 31.3 31.7 20.9 54 7.0 ENE 20 26 11 14 1010.9 - 0.0
19/10:30am 30.6 32.6 20.8 56 6.5 E 11 15 6 8 1011.2 1011.1 0.0
19/10:00am 30.0 33.1 22.2 63 5.3 ESE 9 13 5 7 1011.3 - 0.0
19/09:30am 29.4 32.0 21.9 64 5.1 ESE 11 17 6 9 1011.4 1011.3 0.0
19/09:00am 28.4 32.5 22.2 69 4.2 SE 4 9 2 5 1011.4 1011.3 11.2
19/08:30am 27.4 30.7 21.4 70 4.0 ESE 6 11 3 6 1011.2 1011.1 11.2
19/08:00am 27.3 31.2 21.8 72 3.7 SE 4 11 2 6 1011.3 - 11.2
19/07:30am 26.0 31.1 22.7 82 2.2 CALM 0 4 0 2 1011.0 1010.9 11.2
19/07:00am 24.1 29.1 22.5 91 1.1 CALM 0 0 0 0 1010.8 - 11.2
19/06:30am 24.3 28.9 22.4 89 1.3 ENE 2 4 1 2 1010.7 1010.6 11.2
19/06:00am 23.8 28.5 21.9 89 1.3 CALM 0 0 0 0 1010.6 1010.5 11.2
19/05:30am 24.2 28.2 22.1 88 1.4 ENE 4 6 2 3 1010.5 1010.4 11.2
19/05:00am 23.7 28.4 22.0 90 1.1 CALM 0 0 0 0 1010.5 - 11.2
19/04:30am 23.9 28.5 21.8 88 1.4 CALM 0 0 0 0 1010.5 1010.4 11.2
19/04:00am 24.4 27.9 21.9 86 1.7 ESE 6 7 3 4 1010.4 - 11.2
19/03:30am 24.6 28.5 21.9 85 1.8 ESE 4 4 2 2 1010.5 1010.4 11.2
19/03:00am 24.8 28.7 21.9 84 1.9 SE 4 6 2 3 1010.5 1010.4 11.2
19/02:30am 24.9 28.8 21.8 83 2.1 SE 4 7 2 4 1010.5 1010.4 11.2
19/02:00am 25.0 29.4 22.1 84 1.9 ESE 2 6 1 3 1010.5 - 11.2
19/01:30am 25.0 28.5 22.1 84 1.9 SE 7 11 4 6 1010.6 1010.5 11.2
19/01:00am 24.7 28.5 21.6 83 2.1 ESE 4 9 2 5 1010.8 - 11.2
19/12:30am 25.0 28.2 21.7 82 2.2 ESE 7 13 4 7 1011.2 1011.1 11.2
19/12:00am 25.1 28.7 22.0 83 2.1 SE 6 9 3 5 1011.4 1011.3 11.2
 
Date/Time
CST
Temp
°C
App
Temp
°C
Dew
Point
Rel
Hum
%
Delta-T
°C
Wind Press
QNH
hPa
Press
MSL
hPa
Rain
since 9 am
mm
Dir
 
Spd
km/h
Gust
km/h
Spd
kts
Gust
kts
18/11:30pm 25.1 28.6 22.2 84 1.9 ESE 7 15 4 8 1011.8 1011.7 11.2
18/11:00pm 25.2 28.9 22.5 85 1.8 ESE 7 11 4 6 1012.0 - 11.2
18/10:30pm 25.5 28.8 22.6 84 2.0 ESE 9 15 5 8 1012.3 1012.2 11.2
18/10:00pm 25.7 29.9 23.4 87 1.6 ESE 7 13 4 7 1012.6 - 11.2
18/09:30pm 25.9 30.2 23.6 87 1.6 ESE 7 19 4 10 1012.6 1012.5 11.2
18/09:00pm 25.7 29.4 23.2 86 1.7 ESE 9 15 5 8 1012.6 1012.5 11.2
18/08:30pm 25.7 29.9 23.4 87 1.6 E 7 13 4 7 1012.4 1012.3 11.2
18/08:00pm 25.5 30.0 23.6 89 1.3 E 6 9 3 5 1012.2 - 11.2
18/07:30pm 26.0 29.2 23.1 84 2.0 E 11 17 6 9 1012.0 1011.9 11.2
18/07:00pm 26.1 29.3 23.0 83 2.1 E 11 15 6 8 1011.7 - 11.2
18/06:30pm 26.5 30.6 23.0 81 2.4 SE 6 7 3 4 1011.2 1011.1 11.2
18/06:00pm 26.9 30.6 23.2 80 2.5 ENE 9 15 5 8 1010.5 1010.4 11.2
18/05:30pm 26.9 30.4 22.9 79 2.7 NE 9 15 5 8 1010.4 1010.3 11.2
18/05:00pm 26.8 29.5 22.8 79 2.7 NE 13 20 7 11 1010.3 - 11.2
18/04:30pm 26.5 30.0 24.2 87 1.6 NE 13 20 7 11 1010.1 1010.0 11.2
18/04:00pm 25.2 30.2 23.8 92 1.0 E 4 9 2 5 1009.5 - 11.2
18/03:30pm 24.6 24.1 22.8 90 1.2 E 30 41 16 22 1009.4 1009.3 8.2
18/03:18pm 27.1 26.4 21.8 73 3.5 E 28 46 15 25 1009.4 - 0.0
18/03:00pm 28.7 32.6 23.6 74 3.5 NNE 9 13 5 7 1009.0 1008.9 0.0
18/02:30pm 30.6 33.9 22.5 62 5.5 NNE 9 22 5 12 1009.2 1009.1 0.0
18/02:00pm 31.3 34.0 22.9 61 5.8 NNE 13 19 7 10 1009.3 - 0.0
18/01:30pm 31.4 33.4 21.6 56 6.6 NE 13 22 7 12 1009.6 1009.5 0.0
18/01:00pm 31.7 33.9 21.8 55 6.7 NE 13 20 7 11 1010.0 - 0.0
18/12:30pm 31.0 33.6 22.6 61 5.7 NE 13 19 7 10 1010.3 1010.2 0.0
18/12:00pm 30.8 33.1 22.1 59 5.9 NE 13 17 7 9 1010.8 1010.7 0.0
18/11:30am 31.6 34.2 22.6 59 6.2 ENE 13 22 7 12 1011.2 1011.1 0.0
18/11:00am 30.3 33.6 22.5 63 5.3 E 9 15 5 8 1011.6 - 0.0
18/10:30am 30.2 34.7 22.9 65 5.0 E 4 9 2 5 1011.5 1011.4 0.0
18/10:00am 29.2 33.3 23.2 70 4.1 E 7 13 4 7 1011.6 - 0.0
18/09:30am 28.6 31.3 22.8 71 4.0 ESE 13 22 7 12 1011.8 1011.7 0.0
18/09:00am 28.6 32.3 23.3 73 3.6 E 9 15 5 8 1011.6 1011.5 0.0
18/08:30am 27.8 31.9 23.2 76 3.1 SE 7 13 4 7 1011.6 1011.5 0.0
18/08:00am 27.1 31.1 23.1 79 2.7 ESE 7 13 4 7 1011.4 - 0.0
18/07:30am 26.6 30.7 22.9 80 2.5 SE 6 9 3 5 1011.2 1011.1 0.0
18/07:00am 26.3 30.8 23.0 82 2.2 NE 4 6 2 3 1010.8 - 0.0
18/06:30am 25.6 30.9 23.1 86 1.7 CALM 0 0 0 0 1010.2 1010.1 0.0
18/06:00am 25.7 31.1 23.2 86 1.7 CALM 0 0 0 0 1010.0 1009.9 0.0
18/05:30am 26.1 31.3 22.8 82 2.2 CALM 0 0 0 0 1009.9 1009.8 0.0
18/05:00am 26.3 30.6 22.6 80 2.5 ESE 4 7 2 4 1009.6 - 0.0
18/04:30am 26.5 30.4 22.6 79 2.6 ESE 6 9 3 5 1009.7 1009.6 0.0
18/04:00am 26.6 30.2 22.4 78 2.8 ESE 7 11 4 6 1009.8 - 0.0
18/03:30am 26.5 30.2 22.3 78 2.8 ESE 6 9 3 5 1009.8 1009.7 0.0
18/03:00am 26.6 30.1 22.2 77 3.0 ESE 7 11 4 6 1010.2 1010.1 0.0
18/02:30am 26.7 30.3 22.1 76 3.1 E 6 7 3 4 1010.5 1010.4 0.0
18/02:00am 26.9 31.0 22.3 76 3.1 SE 4 7 2 4 1010.5 - 0.0
18/01:30am 26.8 30.6 22.4 77 3.0 ESE 6 7 3 4 1010.9 1010.8 0.0
18/01:00am 26.7 31.6 22.3 77 3.0 CALM 0 0 0 0 1011.1 - 0.0
18/12:30am 26.9 31.1 22.5 77 3.0 ESE 4 9 2 5 1011.7 1011.6 0.0
18/12:00am 27.0 30.8 22.4 76 3.1 E 6 9 3 5 1012.1 1012.0 0.0
 
Date/Time
CST
Temp
°C
App
Temp
°C
Dew
Point
Rel
Hum
%
Delta-T
°C
Wind Press
QNH
hPa
Press
MSL
hPa
Rain
since 9 am
mm
Dir
 
Spd
km/h
Gust
km/h
Spd
kts
Gust
kts
17/11:30pm 26.8 31.0 22.4 77 3.0 ESE 4 7 2 4 1011.9 1011.8 0.0
17/11:00pm 27.0 30.0 22.0 74 3.4 ESE 9 15 5 8 1011.7 - 0.0
17/10:30pm 27.3 30.9 22.3 74 3.4 E 7 11 4 6 1011.6 1011.5 0.0
17/10:00pm 27.6 30.8 22.3 73 3.6 ESE 9 17 5 9 1011.5 - 0.0
17/09:30pm 27.8 31.7 22.5 73 3.6 E 6 9 3 5 1011.3 1011.2 0.0
17/09:00pm 28.2 31.2 22.7 72 3.7 ESE 11 15 6 8 1011.3 1011.2 0.0
17/08:30pm 28.6 30.4 22.6 70 4.1 ESE 17 24 9 13 1011.3 1011.2 0.0
17/08:00pm 29.3 31.4 22.5 67 4.6 ESE 15 22 8 12 1011.0 - 0.0
17/07:30pm 29.4 33.9 23.6 71 4.0 NE 6 9 3 5 1010.3 1010.2 0.0
17/07:00pm 30.1 34.8 23.3 67 4.7 ENE 4 4 2 2 1009.3 - 0.0
17/06:30pm 30.8 35.0 22.4 61 5.7 N 4 6 2 3 1008.9 1008.8 0.0
17/06:00pm 31.7 35.2 21.8 55 6.7 NNE 6 7 3 4 1008.6 1008.5 0.0
17/05:30pm 32.6 35.4 20.8 49 7.9 N 7 9 4 5 1008.2 1008.1 0.0
17/05:00pm 33.6 36.5 21.1 48 8.4 NNE 7 15 4 8 1008.0 - 0.0
17/04:30pm 33.8 35.9 20.2 44 9.1 N 9 13 5 7 1007.8 1007.7 0.0
17/04:00pm 34.0 36.2 20.4 45 9.1 N 9 13 5 7 1007.5 - 0.0
17/03:30pm 34.2 36.3 19.4 41 9.8 NNE 7 13 4 7 1007.6 1007.5 0.0

Other Formats:

Comma delimited format used in spreadsheet applications
http://www.bom.gov.au/fwo/IDD60801/IDD60801.94110.axf

JavaScript Object Notation format (JSON) in row-major order
http://www.bom.gov.au/fwo/IDD60801/IDD60801.94110.json